createdAt,value
2022-12-12T00:01:51.675Z,29.05
2022-12-12T00:04:20.205Z,29.52
2022-12-12T00:06:48.389Z,29.58
2022-12-12T00:09:16.353Z,29.40
2022-12-12T00:11:45.075Z,31.35
2022-12-12T00:14:13.198Z,29.17
2022-12-12T00:16:41.130Z,29.90
2022-12-12T00:19:09.075Z,30.05
2022-12-12T00:21:37.003Z,33.25
2022-12-12T00:24:05.060Z,32.15
2022-12-12T00:26:35.503Z,32.80
2022-12-12T00:29:04.679Z,30.10
2022-12-12T00:31:33.132Z,32.40
2022-12-12T00:34:01.109Z,29.17
2022-12-12T00:36:31.234Z,29.70
2022-12-12T00:39:00.320Z,29.58
2022-12-12T00:41:28.671Z,29.73
2022-12-12T00:43:56.659Z,30.85
2022-12-12T00:46:26.531Z,32.58
2022-12-12T00:48:59.714Z,29.35
2022-12-12T00:51:30.303Z,30.42
2022-12-12T00:54:02.054Z,31.80
2022-12-12T00:56:30.764Z,33.38
2022-12-12T00:58:58.714Z,28.15
2022-12-12T01:01:30.053Z,29.60
2022-12-12T01:04:00.114Z,32.70
2022-12-12T01:06:29.824Z,32.85
2022-12-12T01:08:58.258Z,29.27
2022-12-12T01:11:26.690Z,34.15
2022-12-12T01:13:56.061Z,30.15
2022-12-12T01:16:25.494Z,31.38
2022-12-12T01:18:53.520Z,30.92
2022-12-12T01:21:22.235Z,31.90
2022-12-12T01:23:50.364Z,33.67
2022-12-12T01:26:21.769Z,34.30
2022-12-12T01:28:49.884Z,30.83
2022-12-12T01:31:18.968Z,32.13
2022-12-12T01:33:47.334Z,30.23
2022-12-12T01:36:17.693Z,31.35
2022-12-12T01:38:50.336Z,31.77
2022-12-12T01:41:19.434Z,29.83
2022-12-12T01:43:48.275Z,31.95
2022-12-12T01:46:45.388Z,33.55
2022-12-12T01:49:25.219Z,32.72
2022-12-12T01:52:04.226Z,30.73
2022-12-12T01:54:35.896Z,26.35
2022-12-12T01:57:09.517Z,31.23
2022-12-12T01:59:39.275Z,28.00
2022-12-12T02:02:08.396Z,27.52
2022-12-12T02:04:36.956Z,29.17
2022-12-12T02:07:05.132Z,28.45
2022-12-12T02:09:34.631Z,28.42
2022-12-12T02:12:02.599Z,31.73
2022-12-12T02:14:35.592Z,28.60
2022-12-12T02:17:17.411Z,33.55
2022-12-12T02:19:56.643Z,27.33
2022-12-12T02:23:00.975Z,29.42
2022-12-12T02:26:00.696Z,26.48
2022-12-12T02:28:49.635Z,31.52
2022-12-12T02:31:29.379Z,27.33
2022-12-12T02:34:19.439Z,29.30
2022-12-12T02:37:12.378Z,28.50
2022-12-12T02:39:58.954Z,27.08
2022-12-12T02:42:48.165Z,29.70
2022-12-12T02:45:29.407Z,28.58
2022-12-12T02:48:13.468Z,24.88
2022-12-12T02:50:43.155Z,31.52
2022-12-12T02:53:12.081Z,30.27
2022-12-12T02:55:40.151Z,27.70
2022-12-12T02:58:08.199Z,28.83
2022-12-12T03:00:46.738Z,28.63
2022-12-12T03:03:57.370Z,30.85
2022-12-12T03:06:54.937Z,28.95
2022-12-12T03:10:02.407Z,32.17
2022-12-12T03:12:50.072Z,29.83
2022-12-12T03:15:25.395Z,28.90
2022-12-12T03:18:23.189Z,27.67
2022-12-12T03:20:54.691Z,26.65
2022-12-12T03:23:39.094Z,29.05
2022-12-12T03:26:13.250Z,30.55
2022-12-12T03:29:15.423Z,27.50
2022-12-12T03:31:49.699Z,30.90
2022-12-12T03:34:27.382Z,29.35
2022-12-12T03:37:03.555Z,30.63
2022-12-12T03:39:53.433Z,28.52
2022-12-12T03:42:31.782Z,32.15
2022-12-12T03:45:07.783Z,30.83
2022-12-12T03:48:02.091Z,29.20
2022-12-12T03:50:38.935Z,31.02
2022-12-12T03:53:24.171Z,29.33
2022-12-12T03:56:25.420Z,29.58
2022-12-12T03:59:27.613Z,32.53
2022-12-12T04:02:22.372Z,32.90
2022-12-12T04:05:00.378Z,29.80
2022-12-12T04:07:39.028Z,34.75
2022-12-12T04:10:26.696Z,30.52
2022-12-12T04:13:23.467Z,37.30
2022-12-12T04:16:13.257Z,30.85
2022-12-12T04:18:55.115Z,32.00
2022-12-12T04:21:53.717Z,32.65
2022-12-12T04:24:41.894Z,31.58
2022-12-12T04:27:26.955Z,31.80
2022-12-12T04:30:11.800Z,34.38
2022-12-12T04:32:55.467Z,32.78
2022-12-12T04:35:32.171Z,32.45
2022-12-12T04:38:04.555Z,32.63
2022-12-12T04:40:41.139Z,34.75
2022-12-12T04:43:17.613Z,31.38
2022-12-12T04:45:49.269Z,31.80
2022-12-12T04:48:25.688Z,32.15
2022-12-12T04:50:54.884Z,32.55
2022-12-12T04:53:30.219Z,34.88
2022-12-12T04:56:00.759Z,33.00
2022-12-12T04:58:28.900Z,35.00
2022-12-12T05:01:15.547Z,35.45
2022-12-12T05:03:51.105Z,36.58
2022-12-12T05:06:48.003Z,34.00
2022-12-12T05:09:18.429Z,34.00
2022-12-12T05:11:49.279Z,34.93
2022-12-12T05:14:18.503Z,32.92
2022-12-12T05:16:50.979Z,32.65
2022-12-12T05:19:18.990Z,35.35
2022-12-12T05:21:46.996Z,34.55
2022-12-12T05:24:14.959Z,33.35
2022-12-12T05:26:43.007Z,33.45
2022-12-12T05:29:11.023Z,34.97
2022-12-12T05:31:38.892Z,31.55
2022-12-12T05:34:06.909Z,36.58
2022-12-12T05:36:34.854Z,35.03
2022-12-12T05:39:02.818Z,32.45
2022-12-12T05:41:31.520Z,32.80
2022-12-12T05:43:59.549Z,34.35
2022-12-12T05:46:27.766Z,32.60
2022-12-12T05:49:01.420Z,34.50
2022-12-12T05:51:29.675Z,32.83
2022-12-12T05:53:57.630Z,37.10
2022-12-12T05:56:25.633Z,36.38
2022-12-12T05:58:53.535Z,32.90
2022-12-12T06:01:21.519Z,36.53
2022-12-12T06:03:49.740Z,32.60
2022-12-12T06:06:20.695Z,37.38
2022-12-12T06:08:52.986Z,33.63
2022-12-12T06:11:21.097Z,34.70
2022-12-12T06:13:49.051Z,35.13
2022-12-12T06:16:19.586Z,39.00
2022-12-12T06:18:52.976Z,37.33
2022-12-12T06:21:21.888Z,39.67
2022-12-12T06:23:50.437Z,44.70
2022-12-12T06:26:20.174Z,39.67
2022-12-12T06:28:48.884Z,35.08
2022-12-12T06:31:17.977Z,34.15
2022-12-12T06:33:46.854Z,35.05
2022-12-12T06:36:20.284Z,39.72
2022-12-12T06:38:48.283Z,35.45
2022-12-12T06:41:16.312Z,35.55
2022-12-12T06:43:44.651Z,36.95
2022-12-12T06:46:22.431Z,41.58
2022-12-12T06:48:51.493Z,42.70
2022-12-12T06:51:25.522Z,37.50
2022-12-12T06:53:54.051Z,38.65
2022-12-12T06:56:24.868Z,39.53
2022-12-12T06:58:54.448Z,41.17
2022-12-12T07:01:24.495Z,40.55
2022-12-12T07:03:54.452Z,39.42
2022-12-12T07:06:26.901Z,40.45
2022-12-12T07:08:54.883Z,35.28
2022-12-12T07:11:25.880Z,35.75
2022-12-12T07:13:57.544Z,40.10
2022-12-12T07:16:25.526Z,36.75
2022-12-12T07:18:53.525Z,38.42
2022-12-12T07:21:22.540Z,36.35
2022-12-12T07:23:50.554Z,35.78
2022-12-12T07:26:23.515Z,38.20
2022-12-12T07:28:52.796Z,35.72
2022-12-12T07:31:22.815Z,37.70
2022-12-12T07:33:50.898Z,38.67
2022-12-12T07:36:19.114Z,41.17
2022-12-12T07:38:47.220Z,39.08
2022-12-12T07:41:19.921Z,37.95
2022-12-12T07:43:51.109Z,40.55
2022-12-12T07:46:22.306Z,36.75
2022-12-12T07:51:19.193Z,36.88
2022-12-12T07:53:47.912Z,36.17
2022-12-12T07:56:17.466Z,39.60
2022-12-12T07:58:46.399Z,35.10
2022-12-12T08:01:17.417Z,36.95
2022-12-12T08:03:46.564Z,35.13
2022-12-12T08:06:17.344Z,35.08
2022-12-12T08:08:46.327Z,38.60
2022-12-12T08:11:18.913Z,34.45
2022-12-12T08:13:54.264Z,35.30
2022-12-12T08:16:28.085Z,34.17
2022-12-12T08:18:57.909Z,34.88
2022-12-12T08:21:27.496Z,39.70
2022-12-12T08:24:03.534Z,39.25
2022-12-12T08:26:32.422Z,39.55
2022-12-12T08:29:00.417Z,40.45
2022-12-12T08:31:28.828Z,35.67
2022-12-12T08:33:57.427Z,35.28
2022-12-12T08:36:28.371Z,39.72
2022-12-12T08:38:56.319Z,37.80
2022-12-12T08:41:24.498Z,33.00
2022-12-12T08:43:52.831Z,34.50
2022-12-12T08:46:23.012Z,34.80
2022-12-12T08:48:51.088Z,36.35
2022-12-12T08:51:19.984Z,33.17
2022-12-12T08:53:49.459Z,33.05
2022-12-12T08:56:18.340Z,30.40
2022-12-12T08:58:47.771Z,31.27
2022-12-12T09:01:20.681Z,30.05
2022-12-12T09:03:49.669Z,33.15
2022-12-12T09:06:18.534Z,33.58
2022-12-12T09:08:46.982Z,35.03
2022-12-12T09:11:16.190Z,33.05
2022-12-12T09:13:47.294Z,34.03
2022-12-12T09:16:19.649Z,35.60
2022-12-12T09:18:49.443Z,32.40
2022-12-12T09:21:18.963Z,35.45
2022-12-12T09:23:47.851Z,32.00
2022-12-12T09:26:15.791Z,36.33
2022-12-12T09:28:43.746Z,34.88
2022-12-12T09:31:13.571Z,34.45
2022-12-12T09:33:41.890Z,30.67
2022-12-12T09:36:10.905Z,31.65
2022-12-12T09:38:39.572Z,37.10
2022-12-12T09:41:28.163Z,33.80
2022-12-12T09:44:08.627Z,39.95
2022-12-12T09:47:01.478Z,37.60
2022-12-12T09:49:48.766Z,37.97
2022-12-12T09:52:25.216Z,37.40
2022-12-12T09:54:58.666Z,35.70
2022-12-12T09:57:44.756Z,36.50
2022-12-12T10:00:15.833Z,35.03
2022-12-12T10:03:02.110Z,36.08
2022-12-12T10:05:39.852Z,34.60
2022-12-12T10:08:13.413Z,34.38
2022-12-12T10:10:45.278Z,30.23
2022-12-12T10:13:17.980Z,32.65
2022-12-12T10:15:55.811Z,28.05
2022-12-12T10:18:34.526Z,27.85
2022-12-12T10:21:05.921Z,32.08
2022-12-12T10:23:47.462Z,34.00
2022-12-12T10:26:44.155Z,29.27
2022-12-12T10:29:20.179Z,26.23
2022-12-12T10:31:50.955Z,23.48
2022-12-12T10:34:49.636Z,29.92
2022-12-12T10:37:32.543Z,24.92
2022-12-12T10:40:00.487Z,23.45
2022-12-12T10:42:55.214Z,23.38
2022-12-12T10:45:59.454Z,25.42
2022-12-12T10:48:30.573Z,25.92
2022-12-12T10:51:04.431Z,23.50
2022-12-12T10:53:33.782Z,23.15
2022-12-12T10:56:20.431Z,24.17
2022-12-12T10:59:01.201Z,29.75
2022-12-12T11:04:23.888Z,31.92
2022-12-12T11:06:53.983Z,25.30
2022-12-12T11:09:29.067Z,30.00
2022-12-12T11:12:03.097Z,28.85
2022-12-12T11:14:53.177Z,31.50
2022-12-12T11:17:28.380Z,31.13
2022-12-12T11:20:07.113Z,31.48
2022-12-12T11:22:35.759Z,30.58
2022-12-12T11:25:03.816Z,30.75
2022-12-12T11:27:40.709Z,28.23
2022-12-12T11:30:24.052Z,28.90
2022-12-12T11:32:55.962Z,26.33
2022-12-12T11:35:40.050Z,27.70
2022-12-12T11:38:28.321Z,27.23
2022-12-12T11:41:05.552Z,27.52
2022-12-12T11:43:57.384Z,29.35
2022-12-12T11:46:31.486Z,28.55
2022-12-12T11:49:02.924Z,28.17
2022-12-12T11:51:38.886Z,25.20
2022-12-12T11:54:27.837Z,28.33
2022-12-12T11:57:11.928Z,25.48
2022-12-12T12:00:17.250Z,25.88
2022-12-12T12:03:08.376Z,26.17
2022-12-12T12:05:39.385Z,25.05
2022-12-12T12:08:41.194Z,24.83
2022-12-12T12:11:14.870Z,28.50
2022-12-12T12:14:04.368Z,30.83
2022-12-12T12:16:53.595Z,30.63
2022-12-12T12:19:33.514Z,30.13
2022-12-12T12:22:01.403Z,28.35
2022-12-12T12:24:47.503Z,25.15
2022-12-12T12:27:28.755Z,30.45
2022-12-12T12:30:22.001Z,25.63
2022-12-12T12:33:14.832Z,25.20
2022-12-12T12:36:05.111Z,28.60
2022-12-12T12:38:47.291Z,25.63
2022-12-12T12:41:33.239Z,27.85
2022-12-12T12:44:21.100Z,26.55
2022-12-12T12:47:27.004Z,30.65
2022-12-12T12:50:07.016Z,28.00
2022-12-12T12:52:43.007Z,26.73
2022-12-12T12:55:18.639Z,26.27
2022-12-12T12:57:49.776Z,27.58
2022-12-12T13:00:28.371Z,28.08
2022-12-12T13:03:05.040Z,24.42
2022-12-12T13:05:42.026Z,26.38
2022-12-12T13:08:33.638Z,23.88
2022-12-12T13:11:09.750Z,24.08
2022-12-12T13:13:47.471Z,27.63
2022-12-12T13:16:23.690Z,26.30
2022-12-12T13:19:13.120Z,25.45
2022-12-12T13:21:50.461Z,26.67
2022-12-12T13:24:29.212Z,28.70
2022-12-12T13:27:19.762Z,25.15
2022-12-12T13:30:04.166Z,28.83
2022-12-12T13:32:56.682Z,26.25
2022-12-12T13:35:36.152Z,28.58
2022-12-12T13:38:05.111Z,40.28
2022-12-12T13:40:38.339Z,52.38
2022-12-12T13:43:10.276Z,36.25
2022-12-12T13:45:49.310Z,30.00
2022-12-12T13:48:29.609Z,26.95
2022-12-12T13:51:28.717Z,26.58
2022-12-12T13:54:17.456Z,23.48
2022-12-12T13:56:59.465Z,27.00
2022-12-12T13:59:27.538Z,23.35
2022-12-12T14:01:58.729Z,24.55
2022-12-12T14:04:31.364Z,26.88
2022-12-12T14:07:07.549Z,24.45
2022-12-12T14:09:48.216Z,26.27
2022-12-12T14:12:32.057Z,20.02
2022-12-12T14:15:03.911Z,25.60
2022-12-12T14:17:42.227Z,26.35
2022-12-12T14:20:27.196Z,25.60
2022-12-12T14:23:01.166Z,33.40
2022-12-12T14:25:39.531Z,27.65
2022-12-12T14:28:20.919Z,25.58
2022-12-12T14:33:40.543Z,26.15
2022-12-12T14:36:43.560Z,26.50
2022-12-12T14:39:45.786Z,28.05
2022-12-12T14:42:23.471Z,26.10
2022-12-12T14:44:51.387Z,32.70
2022-12-12T14:47:19.499Z,28.35
2022-12-12T14:49:47.778Z,33.03
2022-12-12T14:52:23.717Z,26.85
2022-12-12T14:54:52.596Z,28.33
2022-12-12T14:57:24.149Z,29.77
2022-12-12T14:59:52.290Z,32.97
2022-12-12T15:02:22.568Z,27.85
2022-12-12T15:04:55.967Z,27.33
2022-12-12T15:07:31.732Z,33.95
2022-12-12T15:09:59.871Z,28.85
2022-12-12T15:12:34.674Z,35.63
2022-12-12T15:15:03.567Z,31.42
2022-12-12T15:17:49.407Z,32.63
2022-12-12T15:20:21.411Z,26.00
2022-12-12T15:23:06.555Z,39.50
2022-12-12T15:25:55.031Z,34.83
2022-12-12T15:28:25.951Z,32.90
2022-12-12T15:30:56.213Z,28.08
2022-12-12T15:33:28.652Z,32.88
2022-12-12T15:36:06.606Z,31.85
2022-12-12T15:38:35.601Z,25.73
2022-12-12T15:41:12.725Z,23.48
2022-12-12T15:43:42.163Z,26.13
2022-12-12T15:46:15.363Z,26.42
2022-12-12T15:48:48.519Z,24.55
2022-12-12T15:51:24.292Z,27.98
2022-12-12T15:53:55.155Z,26.23
2022-12-12T15:56:23.041Z,25.15
2022-12-12T15:58:53.092Z,25.60
2022-12-12T16:01:27.631Z,27.45
2022-12-12T16:04:11.130Z,30.02
2022-12-12T16:06:45.036Z,24.85
2022-12-12T16:09:12.950Z,28.95
2022-12-12T16:11:43.780Z,31.60
2022-12-12T16:14:41.824Z,30.00
2022-12-12T16:17:25.913Z,27.00
2022-12-12T16:23:10.348Z,27.17
2022-12-12T16:33:22.993Z,29.67
2022-12-12T16:36:22.630Z,28.60
2022-12-12T16:38:53.702Z,31.55
2022-12-12T16:41:22.021Z,32.47
2022-12-12T16:48:35.998Z,31.58
2022-12-12T16:51:15.244Z,30.13
2022-12-12T16:53:52.220Z,34.28
2022-12-12T16:56:24.120Z,38.67
2022-12-12T17:01:53.474Z,34.53
2022-12-12T17:07:32.290Z,37.88
2022-12-12T17:10:11.901Z,43.83
2022-12-12T17:12:43.912Z,46.78
2022-12-12T17:15:23.257Z,49.28
2022-12-12T17:17:56.657Z,47.13
2022-12-12T17:20:26.048Z,48.00
2022-12-12T17:22:56.286Z,49.85
2022-12-12T17:25:25.119Z,35.80
2022-12-12T17:27:54.161Z,32.40
2022-12-12T17:30:23.196Z,32.90
2022-12-12T17:35:36.317Z,39.58
2022-12-12T17:38:04.706Z,37.58
2022-12-12T17:40:32.970Z,35.95
2022-12-12T17:43:01.913Z,33.70
2022-12-12T17:45:30.354Z,37.60
2022-12-12T17:47:59.160Z,39.58
2022-12-12T17:50:27.125Z,34.85
2022-12-12T17:52:55.099Z,39.50
2022-12-12T17:55:52.245Z,36.58
2022-12-12T17:58:10.964Z,35.05
2022-12-12T18:00:39.064Z,42.05
2022-12-12T18:03:07.089Z,37.70
2022-12-12T18:05:35.092Z,35.67
2022-12-12T18:08:03.182Z,37.60
2022-12-12T18:10:31.567Z,44.13
2022-12-12T18:12:59.699Z,46.42
2022-12-12T18:15:27.676Z,50.22
2022-12-12T18:17:55.718Z,58.72
2022-12-12T18:20:29.526Z,60.17
2022-12-12T18:22:59.106Z,51.53
2022-12-12T18:25:27.165Z,54.05
2022-12-12T18:27:55.466Z,51.35
2022-12-12T18:30:23.395Z,62.28
2022-12-12T18:32:51.354Z,61.38
2022-12-12T18:35:19.360Z,74.85
2022-12-12T18:37:47.347Z,62.08
2022-12-12T18:40:15.458Z,44.42
2022-12-12T18:42:43.511Z,42.22
2022-12-12T18:45:13.220Z,40.05
2022-12-12T18:47:44.183Z,38.90
2022-12-12T18:50:12.542Z,39.47
2022-12-12T18:52:51.231Z,38.75
2022-12-12T18:55:19.439Z,40.53
2022-12-12T18:57:47.507Z,39.70
2022-12-12T19:00:16.584Z,42.92
2022-12-12T19:02:44.770Z,42.10
2022-12-12T19:05:14.573Z,42.55
2022-12-12T19:07:42.939Z,40.75
2022-12-12T19:10:11.942Z,42.75
2022-12-12T19:12:40.038Z,41.72
2022-12-12T19:15:16.826Z,39.08
2022-12-12T19:17:45.511Z,48.47
2022-12-12T19:20:17.069Z,48.58
2022-12-12T19:22:46.577Z,48.72
2022-12-12T19:25:19.267Z,56.03
2022-12-12T19:27:47.491Z,51.75
2022-12-12T19:30:16.916Z,41.83
2022-12-12T19:32:50.190Z,35.85
2022-12-12T19:35:18.510Z,35.47
2022-12-12T19:37:46.606Z,31.98
2022-12-12T19:40:15.010Z,31.58
2022-12-12T19:42:43.132Z,49.40
2022-12-12T19:45:11.557Z,55.28
2022-12-12T19:47:39.503Z,34.22
2022-12-12T19:50:07.651Z,32.05
2022-12-12T19:52:35.568Z,30.90
2022-12-12T19:55:03.504Z,30.10
2022-12-12T19:57:32.049Z,29.33
2022-12-12T20:00:01.324Z,40.20
2022-12-12T20:02:30.339Z,31.15
2022-12-12T20:04:58.327Z,36.95
2022-12-12T20:07:26.237Z,34.47
2022-12-12T20:09:54.355Z,37.67
2022-12-12T20:12:22.302Z,38.97
2022-12-12T20:14:50.324Z,39.00
2022-12-12T20:17:19.833Z,51.83
2022-12-12T20:19:49.898Z,69.70
2022-12-12T20:22:17.954Z,69.03
2022-12-12T20:24:46.597Z,77.22
2022-12-12T20:27:16.384Z,81.25
2022-12-12T20:29:44.402Z,88.38
2022-12-12T20:32:14.639Z,83.85
2022-12-12T20:34:42.658Z,68.37
2022-12-12T20:37:14.082Z,80.78
2022-12-12T20:39:44.670Z,70.65
2022-12-12T20:42:13.823Z,65.18
2022-12-12T20:44:44.135Z,60.00
2022-12-12T20:47:15.406Z,46.65
2022-12-12T20:49:44.578Z,34.20
2022-12-12T20:52:12.584Z,32.38
2022-12-12T20:54:40.521Z,40.33
2022-12-12T20:57:08.668Z,38.33
2022-12-12T21:02:17.797Z,34.22
2022-12-12T21:04:45.775Z,34.25
2022-12-12T21:07:13.695Z,33.58
2022-12-12T21:09:41.651Z,33.67
2022-12-12T21:12:10.120Z,37.35
2022-12-12T21:14:38.203Z,33.97
2022-12-12T21:17:07.063Z,35.10
2022-12-12T21:19:35.014Z,37.97
2022-12-12T21:22:03.000Z,34.97
2022-12-12T21:24:32.279Z,60.08
2022-12-12T21:27:00.299Z,156.98
2022-12-12T21:29:28.203Z,150.57
2022-12-12T21:31:56.190Z,84.18
2022-12-12T21:34:24.795Z,79.15
2022-12-12T21:36:55.496Z,94.05
2022-12-12T21:39:28.579Z,66.97
2022-12-12T21:41:57.328Z,44.08
2022-12-12T21:44:26.212Z,48.60
2022-12-12T21:46:54.257Z,72.93
2022-12-12T21:49:28.822Z,52.97
2022-12-12T21:51:59.294Z,51.90
2022-12-12T21:54:32.071Z,60.42
2022-12-12T21:57:08.035Z,40.45
2022-12-12T21:59:39.771Z,32.67
2022-12-12T22:02:08.239Z,33.53
2022-12-12T22:04:36.249Z,32.92
2022-12-12T22:07:04.263Z,30.75
2022-12-12T22:09:32.234Z,32.42
2022-12-12T22:12:04.158Z,30.48
2022-12-12T22:14:33.257Z,34.75
2022-12-12T22:17:02.279Z,35.10
2022-12-12T22:19:30.485Z,33.25
2022-12-12T22:21:58.387Z,31.55
2022-12-12T22:24:27.205Z,31.70
2022-12-12T22:26:55.198Z,32.42
2022-12-12T22:29:23.229Z,32.50
2022-12-12T22:31:53.171Z,33.42
2022-12-12T22:34:24.555Z,34.88
2022-12-12T22:36:54.582Z,34.63
2022-12-12T22:39:28.284Z,37.95
2022-12-12T22:41:57.180Z,35.42
2022-12-12T22:44:26.791Z,32.15
2022-12-12T22:46:56.108Z,32.60
2022-12-12T22:49:29.258Z,36.22
2022-12-12T22:51:58.519Z,33.55
2022-12-12T22:54:27.518Z,29.90
2022-12-12T22:56:55.531Z,35.17
2022-12-12T22:59:27.145Z,34.85
2022-12-12T23:01:56.771Z,37.85
2022-12-12T23:04:24.725Z,35.33
2022-12-12T23:06:53.937Z,34.67
2022-12-12T23:09:23.604Z,30.95
2022-12-12T23:11:51.570Z,31.38
2022-12-12T23:14:22.947Z,32.97
2022-12-12T23:16:52.145Z,33.10
2022-12-12T23:19:23.568Z,35.90
2022-12-12T23:21:51.527Z,34.58
2022-12-12T23:24:19.799Z,34.72
2022-12-12T23:26:50.724Z,32.17
2022-12-12T23:29:21.301Z,31.65
2022-12-12T23:31:49.438Z,34.65
2022-12-12T23:34:21.709Z,33.53
2022-12-12T23:36:50.841Z,31.13
2022-12-12T23:39:19.203Z,30.08
2022-12-12T23:41:47.267Z,31.88
2022-12-12T23:44:17.060Z,30.05
2022-12-12T23:46:45.983Z,27.48
2022-12-12T23:49:13.849Z,31.60
2022-12-12T23:51:48.135Z,32.17
2022-12-12T23:54:23.018Z,28.67
2022-12-12T23:56:52.133Z,28.20
2022-12-12T23:59:21.729Z,36.28
